sensor_id;sensor_type;location;lat;lon;timestamp;pressure;altitude;pressure_sealevel;temperature;humidity
77149;BME280;66122;47.130;16.844;2023-01-29T00:09:06;100674.78;;;0.50;90.05
77149;BME280;66122;47.130;16.844;2023-01-29T00:19:09;100683.44;;;0.52;89.19
77149;BME280;66122;47.130;16.844;2023-01-29T00:29:12;100691.25;;;0.51;89.43
77149;BME280;66122;47.130;16.844;2023-01-29T00:39:14;100689.53;;;0.47;89.89
77149;BME280;66122;47.130;16.844;2023-01-29T00:49:17;100699.97;;;0.41;90.18
77149;BME280;66122;47.130;16.844;2023-01-29T00:59:19;100695.59;;;0.39;90.38
77149;BME280;66122;47.130;16.844;2023-01-29T01:09:22;100692.16;;;0.42;90.39
77149;BME280;66122;47.130;16.844;2023-01-29T01:19:43;100698.22;;;0.39;90.13
77149;BME280;66122;47.130;16.844;2023-01-29T01:29:46;100686.91;;;0.33;89.83
77149;BME280;66122;47.130;16.844;2023-01-29T01:39:49;100692.09;;;0.30;89.93
77149;BME280;66122;47.130;16.844;2023-01-29T01:49:52;100690.41;;;0.35;90.10
77149;BME280;66122;47.130;16.844;2023-01-29T02:00:02;100703.41;;;0.36;89.11
77149;BME280;66122;47.130;16.844;2023-01-29T02:10:21;100710.34;;;0.28;89.41
77149;BME280;66122;47.130;16.844;2023-01-29T02:20:28;100712.06;;;0.14;89.21
77149;BME280;66122;47.130;16.844;2023-01-29T02:30:52;100716.34;;;0.08;89.79
77149;BME280;66122;47.130;16.844;2023-01-29T02:41:01;100734.59;;;0.09;89.78
77149;BME280;66122;47.130;16.844;2023-01-29T02:51:20;100725.94;;;0.12;88.42
77149;BME280;66122;47.130;16.844;2023-01-29T03:01:32;100730.28;;;0.19;88.03
77149;BME280;66122;47.130;16.844;2023-01-29T03:11:41;100736.38;;;0.18;88.30
77149;BME280;66122;47.130;16.844;2023-01-29T03:21:47;100746.75;;;0.15;86.83
77149;BME280;66122;47.130;16.844;2023-01-29T03:31:54;100746.78;;;0.12;85.92
77149;BME280;66122;47.130;16.844;2023-01-29T03:42:25;100768.44;;;-0.02;86.13
77149;BME280;66122;47.130;16.844;2023-01-29T03:53:16;100758.88;;;-0.01;86.00
77149;BME280;66122;47.130;16.844;2023-01-29T04:13:12;100762.31;;;-0.05;85.55
77149;BME280;66122;47.130;16.844;2023-01-29T04:23:24;100751.03;;;-0.06;86.60
77149;BME280;66122;47.130;16.844;2023-01-29T04:33:43;100748.41;;;-0.10;85.85
77149;BME280;66122;47.130;16.844;2023-01-29T04:44:01;100737.97;;;-0.15;85.80
77149;BME280;66122;47.130;16.844;2023-01-29T04:54:15;100741.41;;;-0.20;85.26
77149;BME280;66122;47.130;16.844;2023-01-29T05:04:22;100737.94;;;-0.19;85.02
77149;BME280;66122;47.130;16.844;2023-01-29T05:14:26;100736.16;;;-0.28;84.62
77149;BME280;66122;47.130;16.844;2023-01-29T05:24:31;100746.50;;;-0.35;84.83
77149;BME280;66122;47.130;16.844;2023-01-29T05:34:34;100732.56;;;-0.47;85.15
77149;BME280;66122;47.130;16.844;2023-01-29T05:44:36;100749.97;;;-0.44;85.05
77149;BME280;66122;47.130;16.844;2023-01-29T05:54:39;100764.69;;;-0.45;85.74
77149;BME280;66122;47.130;16.844;2023-01-29T06:04:41;100757.81;;;-0.38;85.61
77149;BME280;66122;47.130;16.844;2023-01-29T06:14:44;100769.94;;;-0.40;84.69
77149;BME280;66122;47.130;16.844;2023-01-29T06:24:46;100790.78;;;-0.34;83.71
77149;BME280;66122;47.130;16.844;2023-01-29T06:34:49;100801.22;;;-0.34;83.34
77149;BME280;66122;47.130;16.844;2023-01-29T06:44:51;100810.72;;;-0.44;80.87
77149;BME280;66122;47.130;16.844;2023-01-29T06:54:54;100814.97;;;-0.53;79.68
77149;BME280;66122;47.130;16.844;2023-01-29T07:04:57;100816.72;;;-0.52;79.14
77149;BME280;66122;47.130;16.844;2023-01-29T07:15:00;100805.41;;;-0.53;78.68
77149;BME280;66122;47.130;16.844;2023-01-29T07:25:02;100806.34;;;-0.43;78.77
77149;BME280;66122;47.130;16.844;2023-01-29T07:35:06;100813.28;;;-0.45;78.36
77149;BME280;66122;47.130;16.844;2023-01-29T07:45:09;100816.69;;;-0.54;77.80
77149;BME280;66122;47.130;16.844;2023-01-29T07:55:12;100811.53;;;-0.43;77.67
77149;BME280;66122;47.130;16.844;2023-01-29T08:05:15;100824.63;;;-0.37;76.54
77149;BME280;66122;47.130;16.844;2023-01-29T08:15:17;100805.63;;;-0.21;77.12
77149;BME280;66122;47.130;16.844;2023-01-29T08:25:20;100810.94;;;-0.09;75.69
77149;BME280;66122;47.130;16.844;2023-01-29T08:35:23;100808.31;;;-0.07;75.49
77149;BME280;66122;47.130;16.844;2023-01-29T08:45:26;100815.22;;;-0.17;75.13
77149;BME280;66122;47.130;16.844;2023-01-29T08:55:28;100816.25;;;0.16;75.10
77149;BME280;66122;47.130;16.844;2023-01-29T09:05:31;100829.31;;;0.19;74.06
77149;BME280;66122;47.130;16.844;2023-01-29T09:15:33;100840.69;;;0.34;73.22
77149;BME280;66122;47.130;16.844;2023-01-29T09:25:36;100838.28;;;0.94;72.74
77149;BME280;66122;47.130;16.844;2023-01-29T09:35:40;100853.84;;;0.60;72.16
77149;BME280;66122;47.130;16.844;2023-01-29T09:46:12;100854.78;;;0.87;71.38
77149;BME280;66122;47.130;16.844;2023-01-29T09:56:21;100842.66;;;0.90;72.12
77149;BME280;66122;47.130;16.844;2023-01-29T10:07:01;100854.81;;;0.88;71.01
77149;BME280;66122;47.130;16.844;2023-01-29T10:27:13;100849.66;;;1.14;70.57
77149;BME280;66122;47.130;16.844;2023-01-29T10:37:22;100839.25;;;1.35;69.72
77149;BME280;66122;47.130;16.844;2023-01-29T11:19:00;100831.31;;;0.84;72.25
77149;BME280;66122;47.130;16.844;2023-01-29T11:29:02;100790.50;;;1.33;70.91
77149;BME280;66122;47.130;16.844;2023-01-29T11:39:22;100755.94;;;2.97;64.57
77149;BME280;66122;47.130;16.844;2023-01-29T11:49:31;100743.28;;;2.22;66.06
77149;BME280;66122;47.130;16.844;2023-01-29T12:09:48;100744.38;;;1.27;70.19
77149;BME280;66122;47.130;16.844;2023-01-29T12:20:03;100741.75;;;0.91;70.51
77149;BME280;66122;47.130;16.844;2023-01-29T12:30:28;100739.13;;;1.30;70.49
77149;BME280;66122;47.130;16.844;2023-01-29T12:40:46;100732.19;;;1.17;69.69
77149;BME280;66122;47.130;16.844;2023-01-29T12:50:51;100720.81;;;1.61;68.73
77149;BME280;66122;47.130;16.844;2023-01-29T13:00:58;100689.31;;;2.06;66.56
77149;BME280;66122;47.130;16.844;2023-01-29T13:11:36;100677.28;;;1.67;67.47
77149;BME280;66122;47.130;16.844;2023-01-29T13:21:41;100668.56;;;1.70;65.10
77149;BME280;66122;47.130;16.844;2023-01-29T13:31:47;100652.53;;;2.38;64.56
77149;BME280;66122;47.130;16.844;2023-01-29T13:41:51;100659.00;;;1.60;66.35
77149;BME280;66122;47.130;16.844;2023-01-29T13:51:55;100656.50;;;1.11;68.28
77149;BME280;66122;47.130;16.844;2023-01-29T14:01:59;100643.50;;;0.71;69.59
77149;BME280;66122;47.130;16.844;2023-01-29T14:22:27;100643.50;;;0.85;69.51
77149;BME280;66122;47.130;16.844;2023-01-29T14:32:31;100641.75;;;0.67;69.79
77149;BME280;66122;47.130;16.844;2023-01-29T14:43:04;100631.31;;;0.48;70.94
77149;BME280;66122;47.130;16.844;2023-01-29T14:53:32;100648.66;;;0.32;72.38
77149;BME280;66122;47.130;16.844;2023-01-29T15:03:52;100652.13;;;0.19;72.84
77149;BME280;66122;47.130;16.844;2023-01-29T15:24:17;100623.44;;;0.23;72.63
77149;BME280;66122;47.130;16.844;2023-01-29T15:34:20;100626.06;;;0.31;73.08
77149;BME280;66122;47.130;16.844;2023-01-29T15:44:23;100617.41;;;0.35;74.45
77149;BME280;66122;47.130;16.844;2023-01-29T15:54:29;100613.06;;;0.40;74.72
77149;BME280;66122;47.130;16.844;2023-01-29T16:04:33;100625.25;;;0.49;75.31
77149;BME280;66122;47.130;16.844;2023-01-29T16:14:35;100643.44;;;0.30;77.89
77149;BME280;66122;47.130;16.844;2023-01-29T16:24:38;100645.19;;;0.39;77.03
77149;BME280;66122;47.130;16.844;2023-01-29T16:34:43;100646.94;;;0.31;78.16
77149;BME280;66122;47.130;16.844;2023-01-29T17:05:29;100665.94;;;-0.10;81.54
77149;BME280;66122;47.130;16.844;2023-01-29T17:25:47;100674.59;;;-0.11;82.47
77149;BME280;66122;47.130;16.844;2023-01-29T17:35:51;100660.69;;;-0.19;81.46
77149;BME280;66122;47.130;16.844;2023-01-29T17:45:55;100648.53;;;-0.14;81.07
77149;BME280;66122;47.130;16.844;2023-01-29T17:55:58;100645.91;;;-0.23;81.18
77149;BME280;66122;47.130;16.844;2023-01-29T18:06:01;100627.56;;;-0.49;82.06
77149;BME280;66122;47.130;16.844;2023-01-29T18:16:04;100625.81;;;-0.54;82.76
77149;BME280;66122;47.130;16.844;2023-01-29T18:26:11;100617.97;;;-0.57;82.73
77149;BME280;66122;47.130;16.844;2023-01-29T18:36:14;100613.69;;;-0.52;83.00
77149;BME280;66122;47.130;16.844;2023-01-29T18:46:17;100595.41;;;-0.57;83.26
77149;BME280;66122;47.130;16.844;2023-01-29T18:56:20;100586.75;;;-0.65;82.48
77149;BME280;66122;47.130;16.844;2023-01-29T19:06:23;100582.38;;;-0.64;82.29
77149;BME280;66122;47.130;16.844;2023-01-29T19:16:26;100579.72;;;-0.81;83.09
77149;BME280;66122;47.130;16.844;2023-01-29T19:26:29;100577.84;;;-1.00;84.54
77149;BME280;66122;47.130;16.844;2023-01-29T19:36:35;100573.41;;;-1.20;86.00
77149;BME280;66122;47.130;16.844;2023-01-29T19:46:38;100553.38;;;-1.37;86.94
77149;BME280;66122;47.130;16.844;2023-01-29T19:56:41;100566.31;;;-1.42;88.02
77149;BME280;66122;47.130;16.844;2023-01-29T20:06:43;100556.72;;;-1.50;87.84
77149;BME280;66122;47.130;16.844;2023-01-29T20:16:46;100541.88;;;-1.67;88.87
77149;BME280;66122;47.130;16.844;2023-01-29T20:26:49;100538.31;;;-1.78;90.28
77149;BME280;66122;47.130;16.844;2023-01-29T20:36:52;100522.72;;;-1.81;91.49
77149;BME280;66122;47.130;16.844;2023-01-29T20:46:55;100506.44;;;-1.59;91.50
77149;BME280;66122;47.130;16.844;2023-01-29T20:57:03;100506.44;;;-1.60;91.14
77149;BME280;66122;47.130;16.844;2023-01-29T21:07:06;100508.91;;;-1.77;90.29
77149;BME280;66122;47.130;16.844;2023-01-29T21:17:09;100505.19;;;-2.09;91.89
77149;BME280;66122;47.130;16.844;2023-01-29T21:27:12;100504.09;;;-2.29;91.85
77149;BME280;66122;47.130;16.844;2023-01-29T21:37:14;100496.25;;;-2.39;94.48
77149;BME280;66122;47.130;16.844;2023-01-29T21:47:17;100482.31;;;-2.47;96.49
77149;BME280;66122;47.130;16.844;2023-01-29T21:57:20;100483.97;;;-2.52;97.81
77149;BME280;66122;47.130;16.844;2023-01-29T22:07:23;100479.56;;;-2.62;96.74
77149;BME280;66122;47.130;16.844;2023-01-29T22:17:25;100469.97;;;-2.69;98.08
77149;BME280;66122;47.130;16.844;2023-01-29T22:27:31;100459.63;;;-2.66;96.97
77149;BME280;66122;47.130;16.844;2023-01-29T22:37:34;100457.78;;;-2.76;97.51
77149;BME280;66122;47.130;16.844;2023-01-29T22:47:37;100449.94;;;-2.84;96.41
77149;BME280;66122;47.130;16.844;2023-01-29T22:57:39;100451.72;;;-2.78;95.76
77149;BME280;66122;47.130;16.844;2023-01-29T23:07:42;100442.09;;;-2.90;97.84
77149;BME280;66122;47.130;16.844;2023-01-29T23:17:44;100428.09;;;-3.04;100.00
77149;BME280;66122;47.130;16.844;2023-01-29T23:27:47;100416.09;;;-2.97;99.85
77149;BME280;66122;47.130;16.844;2023-01-29T23:37:50;100405.63;;;-3.02;99.75
77149;BME280;66122;47.130;16.844;2023-01-29T23:47:52;100403.06;;;-3.00;99.65
77149;BME280;66122;47.130;16.844;2023-01-29T23:57:55;100393.59;;;-2.98;99.28
